createdAt,value
2019-02-07T00:01:38.126Z,6.14
2019-02-07T00:02:38.119Z,6.22
2019-02-07T00:03:38.328Z,6.16
2019-02-07T00:05:38.104Z,6.20
2019-02-07T00:06:38.295Z,6.19
2019-02-07T00:07:39.198Z,6.14
2019-02-07T00:09:41.127Z,6.09
2019-02-07T00:11:38.274Z,6.07
2019-02-07T00:12:38.269Z,6.01
2019-02-07T00:13:38.268Z,6.05
2019-02-07T00:14:39.983Z,6.05
2019-02-07T00:16:38.059Z,5.99
2019-02-07T00:19:38.019Z,6.05
2019-02-07T00:20:38.220Z,6.02
2019-02-07T00:22:39.324Z,6.02
2019-02-07T00:23:38.197Z,5.91
2019-02-07T00:24:43.004Z,5.84
2019-02-07T00:25:38.527Z,6.01
2019-02-07T00:26:38.405Z,5.94
2019-02-07T00:28:39.081Z,5.94
2019-02-07T00:29:37.981Z,5.91
2019-02-07T00:30:37.992Z,5.84
2019-02-07T00:31:38.403Z,5.87
2019-02-07T00:33:37.957Z,5.83
2019-02-07T00:34:37.963Z,5.86
2019-02-07T00:35:38.370Z,5.90
2019-02-07T00:36:38.163Z,5.84
2019-02-07T00:37:37.958Z,5.87
2019-02-07T00:38:37.936Z,5.75
2019-02-07T00:40:38.141Z,5.72
2019-02-07T00:41:37.924Z,5.75
2019-02-07T00:42:37.919Z,5.71
2019-02-07T00:43:38.553Z,5.75
2019-02-07T00:47:37.989Z,5.75
2019-02-07T00:48:37.894Z,5.75
2019-02-07T00:51:38.077Z,5.71
2019-02-07T00:52:38.174Z,5.65
2019-02-07T00:53:38.475Z,5.69
2019-02-07T00:55:38.072Z,5.66
2019-02-07T00:56:39.712Z,5.57
2019-02-07T00:57:37.833Z,5.61
2019-02-07T00:58:37.854Z,5.61
2019-02-07T00:59:38.035Z,5.54
2019-02-07T01:01:38.147Z,5.59
2019-02-07T01:03:38.028Z,5.66
2019-02-07T01:04:38.021Z,5.61
2019-02-07T01:06:37.811Z,5.61
2019-02-07T01:07:38.436Z,5.59
2019-02-07T01:08:37.999Z,5.59
2019-02-07T01:09:37.795Z,5.56
2019-02-07T01:11:38.360Z,5.65
2019-02-07T01:12:37.793Z,5.61
2019-02-07T01:13:39.299Z,5.53
2019-02-07T01:14:37.965Z,5.61
2019-02-07T01:15:38.162Z,5.56
2019-02-07T01:16:41.403Z,5.53
2019-02-07T01:18:37.935Z,5.54
2019-02-07T01:21:38.227Z,5.50
2019-02-07T01:22:37.725Z,5.51
2019-02-07T01:23:37.920Z,5.56
2019-02-07T01:24:37.913Z,5.53
2019-02-07T01:25:38.322Z,5.48
2019-02-07T01:26:37.964Z,5.51
2019-02-07T01:28:37.888Z,5.54
2019-02-07T01:29:38.092Z,5.53
2019-02-07T01:30:37.689Z,5.51
2019-02-07T01:31:37.679Z,5.41
2019-02-07T01:36:37.646Z,5.47
2019-02-07T01:37:38.051Z,5.44
2019-02-07T01:38:38.042Z,5.47
2019-02-07T01:40:38.435Z,5.41
2019-02-07T01:41:37.640Z,5.59
2019-02-07T01:43:37.610Z,5.56
2019-02-07T01:46:37.784Z,5.53
2019-02-07T01:47:37.782Z,5.53
2019-02-07T01:48:37.606Z,5.54
2019-02-07T01:49:38.401Z,5.59
2019-02-07T01:51:37.984Z,5.57
2019-02-07T01:52:37.889Z,5.51
2019-02-07T01:53:37.559Z,5.56
2019-02-07T01:55:37.552Z,5.46
2019-02-07T01:56:37.946Z,5.43
2019-02-07T01:57:37.750Z,5.46
2019-02-07T01:59:37.539Z,5.46
2019-02-07T02:01:38.120Z,5.46
2019-02-07T02:03:37.529Z,5.39
2019-02-07T02:05:37.700Z,5.39
2019-02-07T02:06:37.516Z,5.36
2019-02-07T02:07:37.499Z,5.30
2019-02-07T02:08:38.304Z,5.35
2019-02-07T02:10:37.480Z,5.30
2019-02-07T02:11:37.690Z,5.35
2019-02-07T02:12:37.657Z,5.12
2019-02-07T02:14:37.646Z,5.26
2019-02-07T02:16:37.848Z,5.17
2019-02-07T02:17:37.630Z,5.28
2019-02-07T02:18:37.435Z,5.18
2019-02-07T02:22:37.607Z,5.17
2019-02-07T02:23:37.404Z,5.11
2019-02-07T02:24:37.418Z,5.14
2019-02-07T02:25:37.391Z,5.17
2019-02-07T02:27:37.593Z,5.08
2019-02-07T02:28:37.989Z,5.11
2019-02-07T02:30:37.773Z,5.05
2019-02-07T02:31:37.559Z,5.08
2019-02-07T02:32:37.356Z,5.07
2019-02-07T02:38:37.318Z,5.02
2019-02-07T02:39:37.329Z,4.99
2019-02-07T02:40:37.311Z,5.07
2019-02-07T02:41:37.505Z,4.97
2019-02-07T02:42:37.314Z,5.07
2019-02-07T02:45:38.080Z,4.97
2019-02-07T02:47:37.406Z,4.97
2019-02-07T02:49:37.862Z,4.97
2019-02-07T02:50:37.958Z,5.00
2019-02-07T02:52:40.201Z,4.96
2019-02-07T02:53:37.436Z,5.00
2019-02-07T02:54:37.447Z,4.92
2019-02-07T02:58:37.219Z,4.94
2019-02-07T03:01:37.705Z,4.97
2019-02-07T03:02:37.391Z,4.92
2019-02-07T03:03:37.190Z,4.89
2019-02-07T03:04:38.125Z,4.93
2019-02-07T03:06:37.374Z,4.92
2019-02-07T03:07:37.549Z,4.89
2019-02-07T03:11:37.943Z,4.92
2019-02-07T03:12:38.246Z,4.93
2019-02-07T03:13:37.125Z,4.97
2019-02-07T03:14:37.121Z,5.00
2019-02-07T03:16:37.138Z,4.97
2019-02-07T03:17:37.721Z,5.02
2019-02-07T03:19:37.905Z,4.99
2019-02-07T03:21:37.099Z,4.99
2019-02-07T03:23:37.068Z,4.92
2019-02-07T03:24:37.068Z,5.04
2019-02-07T03:26:37.670Z,5.04
2019-02-07T03:27:37.145Z,5.04
2019-02-07T03:28:37.456Z,5.00
2019-02-07T03:29:37.038Z,5.00
2019-02-07T03:30:37.841Z,4.94
2019-02-07T03:31:37.029Z,5.02
2019-02-07T03:33:37.021Z,5.04
2019-02-07T03:35:37.618Z,5.07
2019-02-07T03:37:37.510Z,5.05
2019-02-07T03:40:36.984Z,5.00
2019-02-07T03:41:37.195Z,5.00
2019-02-07T03:42:37.278Z,5.02
2019-02-07T03:43:37.385Z,5.04
2019-02-07T03:47:36.950Z,5.02
2019-02-07T03:50:37.341Z,5.02
2019-02-07T03:51:37.120Z,5.05
2019-02-07T03:52:37.210Z,4.96
2019-02-07T03:53:37.130Z,4.99
2019-02-07T03:55:37.118Z,5.07
2019-02-07T03:57:36.908Z,5.02
2019-02-07T03:58:36.889Z,5.02
2019-02-07T04:00:38.310Z,5.07
2019-02-07T04:01:36.890Z,5.10
2019-02-07T04:02:37.061Z,5.08
2019-02-07T04:04:36.875Z,5.05
2019-02-07T04:05:36.852Z,5.14
2019-02-07T04:06:37.043Z,5.05
2019-02-07T04:08:37.648Z,5.11
2019-02-07T04:11:36.954Z,5.12
2019-02-07T04:13:36.799Z,5.17
2019-02-07T04:14:36.808Z,5.18
2019-02-07T04:15:36.995Z,5.14
2019-02-07T04:17:36.812Z,5.15
2019-02-07T04:18:37.383Z,5.17
2019-02-07T04:19:37.083Z,5.15
2019-02-07T04:20:36.770Z,5.21
2019-02-07T04:21:37.595Z,5.23
2019-02-07T04:22:36.771Z,5.28
2019-02-07T04:23:37.061Z,5.18
2019-02-07T04:24:37.465Z,5.21
2019-02-07T04:25:37.156Z,5.20
2019-02-07T04:26:40.692Z,5.18
2019-02-07T04:30:36.929Z,5.30
2019-02-07T04:31:36.908Z,5.23
2019-02-07T04:32:36.908Z,5.35
2019-02-07T04:33:36.921Z,5.32
2019-02-07T04:35:36.748Z,5.32
2019-02-07T04:36:36.948Z,5.43
2019-02-07T04:38:36.880Z,5.43
2019-02-07T04:40:37.263Z,5.44
2019-02-07T04:41:36.651Z,5.41
2019-02-07T04:42:36.674Z,5.43
2019-02-07T04:45:36.648Z,5.54
2019-02-07T04:46:36.835Z,5.61
2019-02-07T04:48:36.637Z,5.64
2019-02-07T04:49:37.022Z,5.65
2019-02-07T04:50:36.922Z,5.65
2019-02-07T04:52:36.613Z,5.56
2019-02-07T04:54:36.590Z,5.65
2019-02-07T04:56:36.810Z,5.68
2019-02-07T04:57:36.772Z,5.75
2019-02-07T04:58:37.501Z,5.73
2019-02-07T04:59:36.601Z,5.72
2019-02-07T05:00:36.565Z,5.73
2019-02-07T05:01:36.952Z,5.76
2019-02-07T05:02:37.472Z,5.72
2019-02-07T05:03:37.356Z,5.79
2019-02-07T05:04:36.749Z,5.66
2019-02-07T05:05:36.741Z,5.76
2019-02-07T05:06:36.524Z,5.83
2019-02-07T05:07:36.525Z,5.82
2019-02-07T05:09:36.530Z,5.83
2019-02-07T05:10:36.715Z,5.83
2019-02-07T05:12:36.481Z,5.84
2019-02-07T05:15:36.682Z,5.73
2019-02-07T05:16:40.162Z,5.87
2019-02-07T05:17:36.877Z,5.98
2019-02-07T05:18:36.448Z,5.94
2019-02-07T05:19:36.446Z,5.89
2019-02-07T05:20:36.735Z,5.89
2019-02-07T05:21:36.855Z,5.90
2019-02-07T05:22:36.443Z,5.99
2019-02-07T05:26:36.407Z,6.04
2019-02-07T05:28:36.800Z,6.01
2019-02-07T05:30:36.398Z,6.05
2019-02-07T05:32:36.891Z,6.07
2019-02-07T05:33:36.623Z,6.08
2019-02-07T05:34:36.385Z,5.99
2019-02-07T05:36:36.758Z,5.98
2019-02-07T05:38:36.747Z,5.98
2019-02-07T05:39:37.060Z,6.05
2019-02-07T05:40:36.531Z,6.02
2019-02-07T05:41:36.331Z,6.02
2019-02-07T05:43:36.306Z,6.08
2019-02-07T05:44:36.321Z,6.07
2019-02-07T05:45:36.318Z,5.99
2019-02-07T05:46:36.520Z,6.08
2019-02-07T05:47:36.295Z,6.02
2019-02-07T05:48:36.288Z,6.02
2019-02-07T05:49:37.823Z,5.99
2019-02-07T05:51:36.499Z,6.20
2019-02-07T05:52:36.695Z,6.14
2019-02-07T05:53:36.288Z,6.24
2019-02-07T05:55:36.657Z,6.26
2019-02-07T05:56:36.252Z,6.27
2019-02-07T05:57:36.548Z,6.26
2019-02-07T05:59:36.954Z,6.27
2019-02-07T06:00:36.226Z,6.26
2019-02-07T06:01:36.941Z,6.26
2019-02-07T06:02:37.134Z,6.27
2019-02-07T06:05:36.809Z,6.31
2019-02-07T06:07:36.193Z,6.31
2019-02-07T06:11:36.171Z,6.42
2019-02-07T06:16:36.138Z,6.49
2019-02-07T06:19:37.639Z,6.48
2019-02-07T06:20:36.324Z,6.49
2019-02-07T06:21:36.529Z,6.57
2019-02-07T06:23:36.293Z,6.46
2019-02-07T06:24:36.303Z,6.44
2019-02-07T06:25:37.030Z,6.45
2019-02-07T06:26:36.322Z,6.49
2019-02-07T06:27:37.199Z,6.48
2019-02-07T06:29:36.087Z,6.51
2019-02-07T06:30:36.062Z,6.51
2019-02-07T06:31:36.678Z,6.46
2019-02-07T06:32:36.873Z,6.60
2019-02-07T06:33:36.250Z,6.48
2019-02-07T06:34:36.040Z,6.51
2019-02-07T06:35:36.432Z,6.57
2019-02-07T06:36:36.038Z,6.48
2019-02-07T06:37:36.437Z,6.48
2019-02-07T06:38:36.224Z,6.54
2019-02-07T06:39:36.931Z,6.45
2019-02-07T06:40:36.025Z,6.45
2019-02-07T06:43:36.206Z,6.60
2019-02-07T06:44:35.987Z,6.63
2019-02-07T06:45:36.498Z,6.64
2019-02-07T06:46:36.178Z,6.75
2019-02-07T06:47:35.969Z,6.78
2019-02-07T06:48:35.966Z,6.66
2019-02-07T06:49:36.160Z,6.74
2019-02-07T06:51:36.172Z,6.75
2019-02-07T06:54:35.939Z,6.79
2019-02-07T06:55:36.148Z,6.74
2019-02-07T06:56:36.536Z,6.78
2019-02-07T06:57:35.931Z,6.75
2019-02-07T06:58:36.831Z,6.77
2019-02-07T06:59:36.105Z,6.74
2019-02-07T07:02:36.109Z,6.63
2019-02-07T07:03:35.911Z,6.63
2019-02-07T07:06:36.886Z,6.63
2019-02-07T07:07:36.469Z,6.52
2019-02-07T07:08:35.859Z,6.59
2019-02-07T07:09:35.851Z,6.63
2019-02-07T07:10:36.276Z,6.64
2019-02-07T07:11:35.858Z,6.60
2019-02-07T07:12:35.864Z,6.63
2019-02-07T07:15:35.832Z,6.56
2019-02-07T07:17:36.234Z,6.44
2019-02-07T07:18:35.829Z,6.46
2019-02-07T07:19:35.810Z,6.38
2019-02-07T07:20:36.021Z,6.38
2019-02-07T07:21:36.205Z,6.38
2019-02-07T07:24:35.788Z,6.26
2019-02-07T07:25:35.974Z,6.26
2019-02-07T07:26:36.186Z,6.31
2019-02-07T07:27:35.760Z,6.27
2019-02-07T07:28:35.767Z,6.35
2019-02-07T07:31:35.749Z,6.39
2019-02-07T07:32:35.760Z,6.41
2019-02-07T07:35:35.724Z,6.39
2019-02-07T07:36:35.737Z,6.39
2019-02-07T07:37:38.995Z,6.49
2019-02-07T07:38:35.708Z,6.49
2019-02-07T07:39:36.355Z,6.45
2019-02-07T07:41:35.893Z,6.48
2019-02-07T07:42:36.121Z,6.44
2019-02-07T07:43:35.891Z,6.45
2019-02-07T07:45:36.385Z,6.45
2019-02-07T07:46:36.272Z,6.54
2019-02-07T07:47:36.363Z,6.54
2019-02-07T07:49:35.669Z,6.60
2019-02-07T07:50:35.650Z,6.57
2019-02-07T07:52:36.049Z,6.56
2019-02-07T07:54:35.830Z,6.56
2019-02-07T07:55:35.615Z,6.60
2019-02-07T07:58:35.603Z,6.67
2019-02-07T08:04:35.777Z,6.74
2019-02-07T08:07:35.551Z,6.77
2019-02-07T08:08:35.550Z,6.74
2019-02-07T08:10:36.561Z,6.79
2019-02-07T08:12:36.639Z,6.78
2019-02-07T08:13:35.745Z,6.77
2019-02-07T08:14:35.747Z,6.81
2019-02-07T08:15:36.027Z,6.82
2019-02-07T08:16:35.725Z,6.75
2019-02-07T08:19:35.781Z,6.79
2019-02-07T08:20:36.404Z,6.82
2019-02-07T08:23:35.490Z,6.85
2019-02-07T08:24:35.703Z,6.78
2019-02-07T08:25:35.472Z,6.87
2019-02-07T08:27:35.460Z,6.82
2019-02-07T08:29:35.447Z,6.74
2019-02-07T08:30:36.786Z,6.74
2019-02-07T08:31:35.463Z,6.79
2019-02-07T08:38:35.609Z,6.75
2019-02-07T08:39:35.666Z,6.70
2019-02-07T08:40:35.412Z,6.77
2019-02-07T08:41:35.407Z,6.63
2019-02-07T08:45:35.792Z,6.64
2019-02-07T08:46:35.827Z,6.64
2019-02-07T08:47:35.378Z,6.77
2019-02-07T08:48:35.772Z,6.63
2019-02-07T08:50:35.350Z,6.69
2019-02-07T08:51:35.646Z,6.67
2019-02-07T08:52:35.339Z,6.77
2019-02-07T08:53:35.328Z,6.66
2019-02-07T08:54:35.577Z,6.72
2019-02-07T08:55:35.809Z,6.72
2019-02-07T08:56:35.319Z,6.77
2019-02-07T08:57:35.491Z,6.69
2019-02-07T08:58:35.496Z,6.67
2019-02-07T08:59:36.240Z,6.70
2019-02-07T09:00:36.212Z,6.77
2019-02-07T09:03:35.274Z,6.79
2019-02-07T09:04:36.089Z,6.79
2019-02-07T09:06:35.665Z,6.77
2019-02-07T09:07:35.243Z,6.87
2019-02-07T09:08:35.257Z,6.85
2019-02-07T09:10:35.243Z,6.84
2019-02-07T09:11:35.555Z,6.85
2019-02-07T09:12:35.437Z,6.82
2019-02-07T09:13:35.243Z,6.93
2019-02-07T09:14:35.436Z,6.99
2019-02-07T09:15:35.629Z,6.92
2019-02-07T09:16:35.219Z,6.96
2019-02-07T09:18:35.421Z,7.05
2019-02-07T09:19:35.208Z,7.10
2019-02-07T09:20:35.410Z,7.14
2019-02-07T09:22:35.208Z,7.06
2019-02-07T09:23:35.606Z,7.20
2019-02-07T09:25:35.578Z,7.21
2019-02-07T09:26:35.461Z,7.18
2019-02-07T09:27:35.674Z,7.24
2019-02-07T09:29:36.070Z,7.33
2019-02-07T09:30:35.142Z,7.36
2019-02-07T09:31:35.152Z,7.51
2019-02-07T09:32:35.135Z,7.63
2019-02-07T09:34:35.146Z,7.66
2019-02-07T09:37:35.335Z,7.79
2019-02-07T09:38:35.737Z,7.88
2019-02-07T09:39:35.603Z,7.94
2019-02-07T09:40:35.120Z,7.97
2019-02-07T09:42:35.103Z,8.06
2019-02-07T09:43:35.925Z,8.03
2019-02-07T09:45:35.296Z,8.16
2019-02-07T09:46:35.096Z,8.16
2019-02-07T09:47:35.067Z,8.18
2019-02-07T09:48:35.071Z,8.24
2019-02-07T09:49:35.082Z,8.26
2019-02-07T09:50:35.063Z,8.23
2019-02-07T09:52:35.072Z,8.36
2019-02-07T09:54:35.054Z,8.28
2019-02-07T09:56:35.859Z,8.27
2019-02-07T09:57:35.773Z,8.26
2019-02-07T09:58:35.050Z,8.18
2019-02-07T10:00:35.640Z,8.34
2019-02-07T10:01:35.231Z,8.34
2019-02-07T10:04:35.011Z,8.56
2019-02-07T10:05:35.203Z,8.48
2019-02-07T10:06:35.624Z,8.49
2019-02-07T10:10:34.984Z,8.58
2019-02-07T10:12:34.974Z,8.64
2019-02-07T10:14:35.172Z,8.66
2019-02-07T10:17:35.162Z,8.71
2019-02-07T10:18:34.948Z,8.70
2019-02-07T10:20:37.281Z,8.74
2019-02-07T10:23:35.194Z,8.94
2019-02-07T10:25:35.758Z,8.89
2019-02-07T10:27:34.893Z,8.94
2019-02-07T10:28:34.926Z,8.92
2019-02-07T10:29:34.897Z,8.94
2019-02-07T10:30:34.899Z,9.00
2019-02-07T10:31:34.903Z,9.00
2019-02-07T10:33:34.887Z,8.95
2019-02-07T10:34:35.282Z,9.11
2019-02-07T10:35:35.287Z,9.08
2019-02-07T10:39:34.868Z,9.19
2019-02-07T10:40:35.062Z,9.16
2019-02-07T10:41:34.863Z,9.23
2019-02-07T10:42:34.850Z,9.14
2019-02-07T10:43:34.835Z,9.21
2019-02-07T10:44:34.870Z,9.28
2019-02-07T10:45:35.053Z,9.32
2019-02-07T10:46:34.847Z,9.29
2019-02-07T10:47:35.757Z,9.32
2019-02-07T10:48:44.253Z,9.28
2019-02-07T10:49:34.821Z,9.25
2019-02-07T10:51:34.811Z,9.26
2019-02-07T10:52:35.032Z,9.36
2019-02-07T10:53:35.116Z,9.36
2019-02-07T10:54:35.215Z,9.40
2019-02-07T10:55:34.797Z,9.34
2019-02-07T10:56:34.808Z,9.34
2019-02-07T10:59:35.315Z,9.36
2019-02-07T11:00:34.780Z,9.29
2019-02-07T11:01:35.071Z,9.31
2019-02-07T11:03:35.188Z,9.32
2019-02-07T11:04:35.287Z,9.26
2019-02-07T11:05:34.778Z,9.25
2019-02-07T11:06:35.187Z,9.25
2019-02-07T11:07:34.757Z,9.25
2019-02-07T11:08:34.757Z,9.25
2019-02-07T11:11:34.764Z,9.34
2019-02-07T11:12:34.743Z,9.32
2019-02-07T11:15:34.742Z,9.37
2019-02-07T11:16:34.971Z,9.44
2019-02-07T11:17:35.134Z,9.46
2019-02-07T11:18:35.030Z,9.48
2019-02-07T11:19:34.748Z,9.41
2019-02-07T11:21:34.723Z,9.37
2019-02-07T11:22:34.911Z,9.41
2019-02-07T11:23:34.713Z,9.41
2019-02-07T11:25:35.410Z,9.41
2019-02-07T11:27:34.882Z,9.39
2019-02-07T11:28:34.993Z,9.47
2019-02-07T11:29:34.889Z,9.34
2019-02-07T11:30:35.286Z,9.29
2019-02-07T11:32:34.871Z,9.41
2019-02-07T11:33:35.288Z,9.37
2019-02-07T11:36:34.668Z,9.37
2019-02-07T11:37:34.870Z,9.47
2019-02-07T11:41:35.258Z,9.32
2019-02-07T11:42:34.632Z,9.31
2019-02-07T11:43:34.838Z,9.40
2019-02-07T11:44:34.835Z,9.41
2019-02-07T11:45:35.053Z,9.31
2019-02-07T11:46:37.562Z,9.41
2019-02-07T11:47:35.103Z,9.37
2019-02-07T11:50:34.613Z,9.43
2019-02-07T11:51:34.611Z,9.50
2019-02-07T11:53:34.608Z,9.47
2019-02-07T11:55:34.593Z,9.46
2019-02-07T11:56:34.614Z,9.46
2019-02-07T11:57:34.582Z,9.43
2019-02-07T11:58:34.620Z,9.43
2019-02-07T11:59:35.012Z,9.43
2019-02-07T12:00:34.768Z,9.44
2019-02-07T12:01:34.796Z,9.40
2019-02-07T12:02:34.784Z,9.39
2019-02-07T12:03:35.188Z,9.48
2019-02-07T12:04:34.978Z,9.44
2019-02-07T12:06:34.559Z,9.44
2019-02-07T12:07:34.754Z,9.43
2019-02-07T12:08:34.926Z,9.47
2019-02-07T12:09:34.520Z,9.44
2019-02-07T12:10:35.268Z,9.39
2019-02-07T12:11:34.526Z,9.54
2019-02-07T12:13:34.512Z,9.40
2019-02-07T12:14:34.536Z,9.47
2019-02-07T12:15:34.517Z,9.43
2019-02-07T12:16:34.506Z,9.46
2019-02-07T12:17:34.499Z,9.48
2019-02-07T12:18:34.707Z,9.46
2019-02-07T12:19:34.508Z,9.46
2019-02-07T12:20:34.505Z,9.48
2019-02-07T12:21:34.523Z,9.44
2019-02-07T12:22:37.266Z,9.47
2019-02-07T12:23:34.498Z,9.46
2019-02-07T12:24:34.488Z,9.46
2019-02-07T12:25:34.495Z,9.47
2019-02-07T12:27:34.491Z,9.56
2019-02-07T12:28:36.180Z,9.56
2019-02-07T12:29:34.467Z,9.56
2019-02-07T12:30:34.780Z,9.56
2019-02-07T12:31:34.662Z,9.59
2019-02-07T12:32:34.659Z,9.58
2019-02-07T12:33:34.652Z,9.61
2019-02-07T12:34:34.669Z,9.68
2019-02-07T12:35:34.437Z,9.64
2019-02-07T12:36:34.655Z,9.69
2019-02-07T12:37:34.640Z,9.69
2019-02-07T12:39:34.426Z,9.68
2019-02-07T12:41:34.643Z,9.76
2019-02-07T12:43:34.429Z,9.76
2019-02-07T12:44:34.414Z,9.73
2019-02-07T12:45:34.630Z,9.76
2019-02-07T12:46:34.433Z,9.77
2019-02-07T12:47:34.401Z,9.74
2019-02-07T12:48:34.709Z,9.77
2019-02-07T12:49:34.397Z,9.74
2019-02-07T12:51:34.400Z,9.83
2019-02-07T12:52:34.400Z,9.86
2019-02-07T12:53:34.848Z,9.83
2019-02-07T12:55:34.798Z,9.95
2019-02-07T12:56:34.765Z,9.97
2019-02-07T12:57:34.369Z,10.01
2019-02-07T12:58:34.359Z,9.97
2019-02-07T12:59:34.365Z,9.95
2019-02-07T13:00:34.378Z,9.92
2019-02-07T13:01:34.566Z,9.95
2019-02-07T13:02:34.352Z,10.05
2019-02-07T13:03:34.556Z,10.09
2019-02-07T13:04:34.740Z,10.13
2019-02-07T13:05:34.659Z,10.12
2019-02-07T13:07:34.320Z,10.17
2019-02-07T13:08:34.313Z,10.20
2019-02-07T13:09:34.313Z,10.13
2019-02-07T13:10:34.328Z,10.09
2019-02-07T13:11:34.308Z,10.15
2019-02-07T13:12:34.338Z,10.12
2019-02-07T13:13:34.322Z,10.22
2019-02-07T13:14:34.621Z,10.12
2019-02-07T13:15:34.311Z,10.12
2019-02-07T13:16:34.293Z,9.97
2019-02-07T13:17:34.331Z,9.98
2019-02-07T13:18:34.338Z,9.95
2019-02-07T13:19:40.498Z,9.94
2019-02-07T13:21:34.298Z,9.91
2019-02-07T13:22:34.294Z,9.97
2019-02-07T13:23:34.317Z,9.98
2019-02-07T13:24:34.287Z,10.01
2019-02-07T13:26:34.742Z,10.02
2019-02-07T13:27:34.285Z,9.94
2019-02-07T13:28:34.255Z,9.95
2019-02-07T13:29:34.297Z,9.99
2019-02-07T13:30:34.476Z,10.07
2019-02-07T13:31:34.387Z,10.13
2019-02-07T13:32:34.340Z,10.07
2019-02-07T13:33:34.511Z,10.09
2019-02-07T13:34:34.253Z,10.10
2019-02-07T13:35:34.621Z,10.10
2019-02-07T13:36:34.276Z,10.09
2019-02-07T13:37:34.694Z,9.99
2019-02-07T13:38:34.230Z,9.95
2019-02-07T13:40:34.746Z,9.97
2019-02-07T13:41:34.219Z,9.94
2019-02-07T13:42:34.232Z,9.91
2019-02-07T13:43:34.422Z,9.91
2019-02-07T13:44:34.227Z,9.83
2019-02-07T13:45:34.209Z,9.84
2019-02-07T13:46:34.212Z,9.84
2019-02-07T13:47:34.190Z,9.87
2019-02-07T13:48:34.205Z,9.92
2019-02-07T13:49:34.200Z,9.92
2019-02-07T13:50:34.612Z,9.94
2019-02-07T13:51:34.178Z,9.95
2019-02-07T13:53:34.595Z,9.94
2019-02-07T13:55:34.190Z,9.97
2019-02-07T13:56:34.600Z,9.95
2019-02-07T13:57:34.173Z,9.97
2019-02-07T13:58:34.182Z,9.97
2019-02-07T13:59:34.145Z,9.97
2019-02-07T14:00:34.160Z,10.09
2019-02-07T14:02:34.377Z,10.05
2019-02-07T14:03:34.130Z,10.15
2019-02-07T14:04:34.357Z,10.15
2019-02-07T14:05:34.151Z,10.19
2019-02-07T14:06:34.734Z,10.23
2019-02-07T14:07:34.141Z,10.02
2019-02-07T14:08:38.402Z,10.13
2019-02-07T14:09:34.132Z,10.09
2019-02-07T14:10:34.129Z,10.10
2019-02-07T14:11:34.149Z,10.15
2019-02-07T14:12:34.128Z,10.09
2019-02-07T14:13:34.124Z,10.09
2019-02-07T14:14:34.529Z,10.12
2019-02-07T14:15:34.101Z,10.19
2019-02-07T14:16:34.105Z,10.15
2019-02-07T14:17:34.308Z,10.17
2019-02-07T14:19:34.314Z,10.17
2019-02-07T14:20:34.098Z,10.12
2019-02-07T14:21:34.609Z,10.15
2019-02-07T14:22:34.600Z,10.10
2019-02-07T14:23:34.402Z,10.10
2019-02-07T14:24:34.494Z,10.10
2019-02-07T14:25:34.285Z,10.02
2019-02-07T14:26:34.609Z,10.07
2019-02-07T14:27:34.487Z,9.98
2019-02-07T14:28:34.052Z,9.92
2019-02-07T14:29:34.250Z,9.87
2019-02-07T14:30:34.248Z,9.83
2019-02-07T14:31:34.050Z,9.89
2019-02-07T14:32:34.051Z,9.83
2019-02-07T14:33:34.064Z,9.82
2019-02-07T14:34:34.054Z,9.89
2019-02-07T14:35:34.237Z,9.87
2019-02-07T14:36:34.035Z,9.80
2019-02-07T14:37:34.023Z,9.86
2019-02-07T14:38:34.035Z,9.86
2019-02-07T14:39:34.041Z,9.86
2019-02-07T14:40:34.026Z,9.89
2019-02-07T14:41:34.334Z,9.92
2019-02-07T14:42:34.015Z,9.91
2019-02-07T14:43:34.074Z,9.87
2019-02-07T14:44:34.019Z,9.86
2019-02-07T14:45:34.029Z,9.86
2019-02-07T14:46:34.204Z,9.84
2019-02-07T14:47:34.215Z,9.83
2019-02-07T14:48:34.006Z,9.86
2019-02-07T14:49:33.997Z,9.86
2019-02-07T14:50:34.200Z,9.87
2019-02-07T14:51:33.997Z,9.87
2019-02-07T14:52:34.010Z,9.87
2019-02-07T14:53:33.972Z,9.91
2019-02-07T14:54:33.987Z,9.92
2019-02-07T14:55:33.979Z,9.94
2019-02-07T14:56:33.972Z,9.92
2019-02-07T14:57:33.989Z,9.91
2019-02-07T14:59:33.972Z,9.89
2019-02-07T15:00:33.971Z,9.86
2019-02-07T15:02:33.959Z,9.87
2019-02-07T15:03:33.945Z,9.80
2019-02-07T15:04:33.957Z,9.79
2019-02-07T15:05:33.943Z,9.87
2019-02-07T15:07:34.125Z,9.83
2019-02-07T15:08:33.929Z,9.77
2019-02-07T15:09:34.143Z,9.76
2019-02-07T15:10:34.227Z,9.77
2019-02-07T15:11:33.939Z,9.76
2019-02-07T15:12:33.913Z,9.76
2019-02-07T15:13:33.937Z,9.76
2019-02-07T15:14:33.915Z,9.74
2019-02-07T15:15:34.125Z,9.74
2019-02-07T15:17:33.900Z,9.73
2019-02-07T15:18:33.910Z,9.68
2019-02-07T15:19:33.896Z,9.69
2019-02-07T15:20:33.898Z,9.74
2019-02-07T15:21:33.889Z,9.74
2019-02-07T15:22:33.888Z,9.73
2019-02-07T15:23:33.878Z,9.65
2019-02-07T15:24:33.875Z,9.59
2019-02-07T15:25:33.883Z,9.59
2019-02-07T15:26:34.279Z,9.62
2019-02-07T15:27:34.061Z,9.73
2019-02-07T15:28:33.965Z,9.69
2019-02-07T15:29:33.879Z,9.65
2019-02-07T15:30:34.081Z,9.58
2019-02-07T15:31:33.840Z,9.61
2019-02-07T15:32:33.835Z,9.65
2019-02-07T15:33:33.846Z,9.61
2019-02-07T15:34:33.857Z,9.59
2019-02-07T15:35:34.359Z,9.65
2019-02-07T15:36:33.834Z,9.64
2019-02-07T15:37:34.028Z,9.58
2019-02-07T15:38:34.063Z,9.61
2019-02-07T15:39:33.852Z,9.54
2019-02-07T15:40:33.809Z,9.51
2019-02-07T15:41:33.840Z,9.43
2019-02-07T15:42:33.839Z,9.44
2019-02-07T15:43:33.831Z,9.50
2019-02-07T15:45:34.020Z,9.47
2019-02-07T15:46:33.884Z,9.48
2019-02-07T15:47:33.802Z,9.47
2019-02-07T15:48:33.803Z,9.43
2019-02-07T15:49:33.777Z,9.43
2019-02-07T15:50:38.310Z,9.43
2019-02-07T15:51:34.098Z,9.47
2019-02-07T15:52:33.784Z,9.47
2019-02-07T15:53:33.792Z,9.47
2019-02-07T15:54:33.979Z,9.41
2019-02-07T15:56:33.770Z,9.34
2019-02-07T15:57:33.773Z,9.43
2019-02-07T15:58:33.771Z,9.41
2019-02-07T15:59:34.180Z,9.40
2019-02-07T16:00:33.972Z,9.32
2019-02-07T16:01:33.761Z,9.32
2019-02-07T16:03:33.743Z,9.37
2019-02-07T16:04:33.946Z,9.36
2019-02-07T16:05:33.745Z,9.36
2019-02-07T16:06:33.953Z,9.32
2019-02-07T16:07:33.747Z,9.37
2019-02-07T16:08:34.135Z,9.26
2019-02-07T16:09:33.731Z,9.28
2019-02-07T16:10:33.939Z,9.29
2019-02-07T16:11:33.707Z,9.29
2019-02-07T16:12:33.935Z,9.26
2019-02-07T16:13:33.705Z,9.22
2019-02-07T16:14:33.723Z,9.23
2019-02-07T16:15:33.917Z,9.25
2019-02-07T16:16:33.719Z,9.25
2019-02-07T16:17:33.808Z,9.26
2019-02-07T16:18:33.891Z,9.23
2019-02-07T16:19:33.706Z,9.29
2019-02-07T16:20:34.315Z,9.29
2019-02-07T16:22:34.003Z,9.19
2019-02-07T16:23:33.666Z,9.22
2019-02-07T16:24:33.883Z,9.25
2019-02-07T16:26:33.674Z,9.10
2019-02-07T16:28:33.666Z,9.14
2019-02-07T16:29:33.878Z,9.10
2019-02-07T16:30:33.864Z,9.03
2019-02-07T16:31:33.859Z,9.00
2019-02-07T16:32:33.669Z,9.02
2019-02-07T16:33:33.854Z,8.97
2019-02-07T16:34:33.862Z,8.99
2019-02-07T16:35:33.659Z,9.03
2019-02-07T16:36:34.035Z,8.92
2019-02-07T16:37:33.635Z,8.94
2019-02-07T16:38:33.619Z,8.84
2019-02-07T16:39:33.631Z,8.92
2019-02-07T16:40:33.625Z,8.85
2019-02-07T16:41:33.621Z,8.85
2019-02-07T16:42:33.627Z,8.81
2019-02-07T16:43:33.620Z,8.73
2019-02-07T16:45:33.828Z,8.74
2019-02-07T16:46:33.601Z,8.73
2019-02-07T16:47:33.596Z,8.70
2019-02-07T16:48:33.608Z,8.63
2019-02-07T16:49:33.812Z,8.69
2019-02-07T16:50:33.576Z,8.61
2019-02-07T16:51:33.589Z,8.56
2019-02-07T16:52:33.786Z,8.61
2019-02-07T16:54:33.761Z,8.56
2019-02-07T16:55:33.564Z,8.61
2019-02-07T16:56:33.757Z,8.53
2019-02-07T16:57:33.554Z,8.56
2019-02-07T17:00:33.555Z,8.41
2019-02-07T17:01:34.061Z,8.58
2019-02-07T17:02:33.554Z,8.58
2019-02-07T17:03:33.572Z,8.60
2019-02-07T17:04:33.829Z,8.60
2019-02-07T17:06:34.154Z,8.53
2019-02-07T17:07:33.535Z,8.49
2019-02-07T17:08:33.521Z,8.52
2019-02-07T17:09:33.517Z,8.51
2019-02-07T17:10:33.527Z,8.45
2019-02-07T17:11:33.736Z,8.51
2019-02-07T17:12:33.699Z,8.45
2019-02-07T17:13:33.704Z,8.38
2019-02-07T17:14:33.530Z,8.31
2019-02-07T17:15:33.490Z,8.31
2019-02-07T17:16:33.496Z,8.34
2019-02-07T17:17:33.485Z,8.23
2019-02-07T17:18:33.505Z,8.24
2019-02-07T17:19:33.480Z,8.12
2019-02-07T17:20:33.681Z,8.16
2019-02-07T17:22:33.679Z,8.10
2019-02-07T17:23:33.669Z,8.03
2019-02-07T17:25:33.473Z,8.13
2019-02-07T17:26:34.064Z,8.09
2019-02-07T17:27:33.451Z,8.15
2019-02-07T17:29:33.649Z,8.16
2019-02-07T17:30:33.450Z,8.08
2019-02-07T17:31:33.450Z,8.10
2019-02-07T17:32:33.658Z,8.05
2019-02-07T17:33:33.645Z,8.09
2019-02-07T17:34:33.821Z,8.03
2019-02-07T17:35:33.413Z,8.05
2019-02-07T17:37:33.615Z,8.03
2019-02-07T17:38:33.629Z,8.01
2019-02-07T17:39:33.826Z,7.90
2019-02-07T17:40:33.423Z,7.91
2019-02-07T17:41:33.734Z,7.90
2019-02-07T17:42:33.600Z,7.95
2019-02-07T17:43:33.827Z,7.93
2019-02-07T17:44:33.408Z,7.91
2019-02-07T17:45:33.600Z,7.79
2019-02-07T17:46:33.584Z,7.93
2019-02-07T17:47:33.400Z,7.79
2019-02-07T17:48:33.391Z,7.83
2019-02-07T17:49:33.389Z,7.75